sensor_id;sensor_type;location;lat;lon;timestamp;P1;durP1;ratioP1;P2;durP2;ratioP2
11303;SDS011;5707;49.588;12.148;2023-08-24T00:00:20;3.42;;;1.63;;
11303;SDS011;5707;49.588;12.148;2023-08-24T00:02:46;3.70;;;2.30;;
11303;SDS011;5707;49.588;12.148;2023-08-24T00:05:11;1.98;;;1.80;;
11303;SDS011;5707;49.588;12.148;2023-08-24T00:07:38;3.80;;;2.13;;
11303;SDS011;5707;49.588;12.148;2023-08-24T00:10:04;2.15;;;1.77;;
11303;SDS011;5707;49.588;12.148;2023-08-24T00:12:30;1.75;;;1.65;;
11303;SDS011;5707;49.588;12.148;2023-08-24T00:14:58;2.17;;;1.55;;
11303;SDS011;5707;49.588;12.148;2023-08-24T00:17:23;1.80;;;1.70;;
11303;SDS011;5707;49.588;12.148;2023-08-24T00:19:49;2.28;;;2.08;;
11303;SDS011;5707;49.588;12.148;2023-08-24T00:22:15;1.98;;;1.88;;
11303;SDS011;5707;49.588;12.148;2023-08-24T00:24:40;2.60;;;2.00;;
11303;SDS011;5707;49.588;12.148;2023-08-24T00:27:06;2.15;;;2.05;;
11303;SDS011;5707;49.588;12.148;2023-08-24T00:29:31;3.42;;;1.92;;
11303;SDS011;5707;49.588;12.148;2023-08-24T00:31:57;2.58;;;2.38;;
11303;SDS011;5707;49.588;12.148;2023-08-24T00:34:23;2.17;;;2.08;;
11303;SDS011;5707;49.588;12.148;2023-08-24T00:36:48;2.05;;;1.95;;
11303;SDS011;5707;49.588;12.148;2023-08-24T00:39:14;6.45;;;2.53;;
11303;SDS011;5707;49.588;12.148;2023-08-24T00:41:41;2.00;;;1.90;;
11303;SDS011;5707;49.588;12.148;2023-08-24T00:44:07;2.00;;;1.90;;
11303;SDS011;5707;49.588;12.148;2023-08-24T00:46:32;2.30;;;2.10;;
11303;SDS011;5707;49.588;12.148;2023-08-24T00:48:59;2.05;;;1.90;;
11303;SDS011;5707;49.588;12.148;2023-08-24T00:51:25;4.00;;;2.03;;
11303;SDS011;5707;49.588;12.148;2023-08-24T00:53:51;1.95;;;1.85;;
11303;SDS011;5707;49.588;12.148;2023-08-24T00:56:17;3.47;;;2.35;;
11303;SDS011;5707;49.588;12.148;2023-08-24T00:58:45;2.22;;;2.03;;
11303;SDS011;5707;49.588;12.148;2023-08-24T01:01:12;2.75;;;2.55;;
11303;SDS011;5707;49.588;12.148;2023-08-24T01:03:38;2.15;;;1.95;;
11303;SDS011;5707;49.588;12.148;2023-08-24T01:06:04;2.08;;;1.98;;
11303;SDS011;5707;49.588;12.148;2023-08-24T01:08:29;2.20;;;2.00;;
11303;SDS011;5707;49.588;12.148;2023-08-24T01:16:34;4.00;;;2.15;;
11303;SDS011;5707;49.588;12.148;2023-08-24T01:19:05;3.17;;;2.00;;
11303;SDS011;5707;49.588;12.148;2023-08-24T01:21:35;2.17;;;1.75;;
11303;SDS011;5707;49.588;12.148;2023-08-24T01:26:39;2.78;;;2.28;;
11303;SDS011;5707;49.588;12.148;2023-08-24T01:29:06;6.28;;;2.13;;
11303;SDS011;5707;49.588;12.148;2023-08-24T01:31:32;3.38;;;2.00;;
11303;SDS011;5707;49.588;12.148;2023-08-24T01:33:58;2.88;;;1.92;;
11303;SDS011;5707;49.588;12.148;2023-08-24T01:36:24;2.35;;;2.05;;
11303;SDS011;5707;49.588;12.148;2023-08-24T01:39:02;3.53;;;2.20;;
11303;SDS011;5707;49.588;12.148;2023-08-24T01:41:47;2.47;;;2.28;;
11303;SDS011;5707;49.588;12.148;2023-08-24T01:44:17;2.50;;;2.30;;
11303;SDS011;5707;49.588;12.148;2023-08-24T01:46:45;4.35;;;2.17;;
11303;SDS011;5707;49.588;12.148;2023-08-24T01:49:13;2.60;;;1.90;;
11303;SDS011;5707;49.588;12.148;2023-08-24T01:51:39;2.08;;;1.88;;
11303;SDS011;5707;49.588;12.148;2023-08-24T01:54:05;2.13;;;1.83;;
11303;SDS011;5707;49.588;12.148;2023-08-24T01:56:31;2.22;;;1.77;;
11303;SDS011;5707;49.588;12.148;2023-08-24T01:58:57;2.47;;;2.17;;
11303;SDS011;5707;49.588;12.148;2023-08-24T02:01:22;2.08;;;1.98;;
11303;SDS011;5707;49.588;12.148;2023-08-24T02:03:48;2.13;;;2.03;;
11303;SDS011;5707;49.588;12.148;2023-08-24T02:06:13;2.10;;;2.00;;
11303;SDS011;5707;49.588;12.148;2023-08-24T02:08:39;2.75;;;2.55;;
11303;SDS011;5707;49.588;12.148;2023-08-24T02:11:04;2.45;;;2.25;;
11303;SDS011;5707;49.588;12.148;2023-08-24T02:13:31;4.05;;;1.90;;
11303;SDS011;5707;49.588;12.148;2023-08-24T02:16:03;2.25;;;2.15;;
11303;SDS011;5707;49.588;12.148;2023-08-24T02:18:29;3.45;;;1.73;;
11303;SDS011;5707;49.588;12.148;2023-08-24T02:20:54;2.10;;;1.60;;
11303;SDS011;5707;49.588;12.148;2023-08-24T02:23:20;2.10;;;1.90;;
11303;SDS011;5707;49.588;12.148;2023-08-24T02:25:46;2.08;;;1.98;;
11303;SDS011;5707;49.588;12.148;2023-08-24T02:28:11;3.53;;;2.10;;
11303;SDS011;5707;49.588;12.148;2023-08-24T02:30:37;2.60;;;2.15;;
11303;SDS011;5707;49.588;12.148;2023-08-24T02:33:04;2.03;;;1.92;;
11303;SDS011;5707;49.588;12.148;2023-08-24T02:35:30;3.35;;;1.98;;
11303;SDS011;5707;49.588;12.148;2023-08-24T02:37:56;2.45;;;2.17;;
11303;SDS011;5707;49.588;12.148;2023-08-24T02:40:22;3.78;;;2.13;;
11303;SDS011;5707;49.588;12.148;2023-08-24T02:42:48;3.13;;;2.10;;
11303;SDS011;5707;49.588;12.148;2023-08-24T02:45:13;2.22;;;2.10;;
11303;SDS011;5707;49.588;12.148;2023-08-24T02:47:39;2.75;;;2.15;;
11303;SDS011;5707;49.588;12.148;2023-08-24T02:50:05;3.88;;;2.17;;
11303;SDS011;5707;49.588;12.148;2023-08-24T02:52:33;2.30;;;2.10;;
11303;SDS011;5707;49.588;12.148;2023-08-24T02:54:59;3.42;;;2.17;;
11303;SDS011;5707;49.588;12.148;2023-08-24T02:57:24;2.30;;;2.10;;
11303;SDS011;5707;49.588;12.148;2023-08-24T02:59:50;2.50;;;2.30;;
11303;SDS011;5707;49.588;12.148;2023-08-24T03:02:15;2.72;;;2.10;;
11303;SDS011;5707;49.588;12.148;2023-08-24T03:04:41;3.50;;;2.13;;
11303;SDS011;5707;49.588;12.148;2023-08-24T03:07:07;2.17;;;1.90;;
11303;SDS011;5707;49.588;12.148;2023-08-24T03:09:35;3.28;;;2.28;;
11303;SDS011;5707;49.588;12.148;2023-08-24T03:12:01;3.40;;;2.17;;
11303;SDS011;5707;49.588;12.148;2023-08-24T03:14:26;2.25;;;2.05;;
11303;SDS011;5707;49.588;12.148;2023-08-24T03:16:52;2.03;;;1.92;;
11303;SDS011;5707;49.588;12.148;2023-08-24T03:19:17;3.10;;;2.22;;
11303;SDS011;5707;49.588;12.148;2023-08-24T03:21:43;2.42;;;2.22;;
11303;SDS011;5707;49.588;12.148;2023-08-24T03:24:09;2.45;;;2.10;;
11303;SDS011;5707;49.588;12.148;2023-08-24T03:26:34;2.00;;;1.88;;
11303;SDS011;5707;49.588;12.148;2023-08-24T03:29:00;2.00;;;1.90;;
11303;SDS011;5707;49.588;12.148;2023-08-24T03:31:25;4.47;;;1.90;;
11303;SDS011;5707;49.588;12.148;2023-08-24T03:33:51;1.98;;;1.80;;
11303;SDS011;5707;49.588;12.148;2023-08-24T03:36:17;1.90;;;1.80;;
11303;SDS011;5707;49.588;12.148;2023-08-24T03:38:43;2.72;;;2.45;;
11303;SDS011;5707;49.588;12.148;2023-08-24T03:41:10;2.40;;;2.20;;
11303;SDS011;5707;49.588;12.148;2023-08-24T03:43:36;2.15;;;1.95;;
11303;SDS011;5707;49.588;12.148;2023-08-24T03:46:04;2.30;;;2.10;;
11303;SDS011;5707;49.588;12.148;2023-08-24T03:48:30;5.03;;;2.03;;
11303;SDS011;5707;49.588;12.148;2023-08-24T03:50:57;2.30;;;2.10;;
11303;SDS011;5707;49.588;12.148;2023-08-24T03:53:23;2.22;;;2.03;;
11303;SDS011;5707;49.588;12.148;2023-08-24T03:55:49;2.53;;;2.33;;
11303;SDS011;5707;49.588;12.148;2023-08-24T03:58:19;2.05;;;1.95;;
11303;SDS011;5707;49.588;12.148;2023-08-24T04:00:45;2.35;;;2.13;;
11303;SDS011;5707;49.588;12.148;2023-08-24T04:03:11;5.70;;;2.10;;
11303;SDS011;5707;49.588;12.148;2023-08-24T04:05:37;2.15;;;2.05;;
11303;SDS011;5707;49.588;12.148;2023-08-24T04:08:03;1.98;;;1.88;;
11303;SDS011;5707;49.588;12.148;2023-08-24T04:10:29;2.50;;;2.30;;
11303;SDS011;5707;49.588;12.148;2023-08-24T04:12:55;2.38;;;2.28;;
11303;SDS011;5707;49.588;12.148;2023-08-24T04:15:20;2.97;;;2.00;;
11303;SDS011;5707;49.588;12.148;2023-08-24T04:17:47;1.80;;;1.70;;
11303;SDS011;5707;49.588;12.148;2023-08-24T04:20:13;1.92;;;1.83;;
11303;SDS011;5707;49.588;12.148;2023-08-24T04:22:38;2.53;;;2.33;;
11303;SDS011;5707;49.588;12.148;2023-08-24T04:25:04;2.22;;;2.13;;
11303;SDS011;5707;49.588;12.148;2023-08-24T04:27:31;2.10;;;2.00;;
11303;SDS011;5707;49.588;12.148;2023-08-24T04:29:57;2.22;;;2.00;;
11303;SDS011;5707;49.588;12.148;2023-08-24T04:32:23;3.47;;;2.40;;
11303;SDS011;5707;49.588;12.148;2023-08-24T04:34:49;3.17;;;2.17;;
11303;SDS011;5707;49.588;12.148;2023-08-24T04:37:14;2.40;;;2.28;;
11303;SDS011;5707;49.588;12.148;2023-08-24T04:39:40;2.55;;;2.20;;
11303;SDS011;5707;49.588;12.148;2023-08-24T04:42:05;3.08;;;2.15;;
11303;SDS011;5707;49.588;12.148;2023-08-24T04:44:31;2.25;;;2.13;;
11303;SDS011;5707;49.588;12.148;2023-08-24T04:46:57;2.38;;;2.17;;
11303;SDS011;5707;49.588;12.148;2023-08-24T04:49:23;2.30;;;2.10;;
11303;SDS011;5707;49.588;12.148;2023-08-24T04:51:49;2.28;;;2.17;;
11303;SDS011;5707;49.588;12.148;2023-08-24T04:54:14;4.00;;;2.20;;
11303;SDS011;5707;49.588;12.148;2023-08-24T04:56:40;3.85;;;2.05;;
11303;SDS011;5707;49.588;12.148;2023-08-24T04:59:06;2.20;;;2.08;;
11303;SDS011;5707;49.588;12.148;2023-08-24T05:01:32;2.78;;;2.58;;
11303;SDS011;5707;49.588;12.148;2023-08-24T05:03:58;2.13;;;2.03;;
11303;SDS011;5707;49.588;12.148;2023-08-24T05:06:24;2.47;;;2.30;;
11303;SDS011;5707;49.588;12.148;2023-08-24T05:08:50;2.50;;;2.30;;
11303;SDS011;5707;49.588;12.148;2023-08-24T05:11:19;2.40;;;2.20;;
11303;SDS011;5707;49.588;12.148;2023-08-24T05:13:47;2.58;;;2.38;;
11303;SDS011;5707;49.588;12.148;2023-08-24T05:16:12;3.60;;;2.63;;
11303;SDS011;5707;49.588;12.148;2023-08-24T05:18:38;4.30;;;2.28;;
11303;SDS011;5707;49.588;12.148;2023-08-24T05:21:04;4.32;;;2.15;;
11303;SDS011;5707;49.588;12.148;2023-08-24T05:23:31;2.58;;;2.40;;
11303;SDS011;5707;49.588;12.148;2023-08-24T05:25:57;2.40;;;2.30;;
11303;SDS011;5707;49.588;12.148;2023-08-24T05:28:27;3.40;;;2.80;;
11303;SDS011;5707;49.588;12.148;2023-08-24T05:30:53;4.05;;;2.28;;
11303;SDS011;5707;49.588;12.148;2023-08-24T05:33:20;2.60;;;2.40;;
11303;SDS011;5707;49.588;12.148;2023-08-24T05:35:46;2.80;;;2.60;;
11303;SDS011;5707;49.588;12.148;2023-08-24T05:38:12;2.95;;;2.75;;
11303;SDS011;5707;49.588;12.148;2023-08-24T05:40:39;2.95;;;2.75;;
11303;SDS011;5707;49.588;12.148;2023-08-24T05:43:04;2.55;;;2.35;;
11303;SDS011;5707;49.588;12.148;2023-08-24T05:45:30;2.80;;;2.60;;
11303;SDS011;5707;49.588;12.148;2023-08-24T05:47:56;3.65;;;2.50;;
11303;SDS011;5707;49.588;12.148;2023-08-24T05:50:21;3.70;;;2.90;;
11303;SDS011;5707;49.588;12.148;2023-08-24T05:52:47;3.30;;;2.83;;
11303;SDS011;5707;49.588;12.148;2023-08-24T05:55:13;2.90;;;2.50;;
11303;SDS011;5707;49.588;12.148;2023-08-24T05:57:38;3.00;;;2.80;;
11303;SDS011;5707;49.588;12.148;2023-08-24T06:00:04;3.20;;;2.95;;
11303;SDS011;5707;49.588;12.148;2023-08-24T06:02:34;3.78;;;3.47;;
11303;SDS011;5707;49.588;12.148;2023-08-24T06:05:00;3.38;;;3.17;;
11303;SDS011;5707;49.588;12.148;2023-08-24T06:07:26;3.63;;;2.90;;
11303;SDS011;5707;49.588;12.148;2023-08-24T06:09:52;3.47;;;3.17;;
11303;SDS011;5707;49.588;12.148;2023-08-24T06:12:18;3.50;;;3.30;;
11303;SDS011;5707;49.588;12.148;2023-08-24T06:14:43;3.60;;;3.40;;
11303;SDS011;5707;49.588;12.148;2023-08-24T06:17:09;3.30;;;2.88;;
11303;SDS011;5707;49.588;12.148;2023-08-24T06:19:34;3.95;;;3.65;;
11303;SDS011;5707;49.588;12.148;2023-08-24T06:22:00;3.95;;;3.20;;
11303;SDS011;5707;49.588;12.148;2023-08-24T06:24:25;4.20;;;3.78;;
11303;SDS011;5707;49.588;12.148;2023-08-24T06:26:51;5.63;;;3.63;;
11303;SDS011;5707;49.588;12.148;2023-08-24T06:29:16;4.32;;;3.92;;
11303;SDS011;5707;49.588;12.148;2023-08-24T06:31:42;4.07;;;3.70;;
11303;SDS011;5707;49.588;12.148;2023-08-24T06:34:07;3.47;;;3.17;;
11303;SDS011;5707;49.588;12.148;2023-08-24T06:36:33;5.30;;;3.47;;
11303;SDS011;5707;49.588;12.148;2023-08-24T06:38:59;3.80;;;3.22;;
11303;SDS011;5707;49.588;12.148;2023-08-24T06:41:24;3.78;;;3.47;;
11303;SDS011;5707;49.588;12.148;2023-08-24T06:43:50;5.68;;;4.13;;
11303;SDS011;5707;49.588;12.148;2023-08-24T06:46:18;3.20;;;3.00;;
11303;SDS011;5707;49.588;12.148;2023-08-24T06:48:44;5.05;;;3.40;;
11303;SDS011;5707;49.588;12.148;2023-08-24T06:51:10;3.83;;;3.53;;
11303;SDS011;5707;49.588;12.148;2023-08-24T06:53:36;6.15;;;3.55;;
11303;SDS011;5707;49.588;12.148;2023-08-24T06:56:02;3.45;;;3.20;;
11303;SDS011;5707;49.588;12.148;2023-08-24T06:58:28;5.47;;;3.70;;
11303;SDS011;5707;49.588;12.148;2023-08-24T07:00:54;3.55;;;3.25;;
11303;SDS011;5707;49.588;12.148;2023-08-24T07:03:20;4.07;;;3.40;;
11303;SDS011;5707;49.588;12.148;2023-08-24T07:05:46;3.60;;;3.30;;
11303;SDS011;5707;49.588;12.148;2023-08-24T07:08:12;3.88;;;3.35;;
11303;SDS011;5707;49.588;12.148;2023-08-24T07:10:38;5.35;;;3.65;;
11303;SDS011;5707;49.588;12.148;2023-08-24T07:13:05;3.95;;;3.17;;
11303;SDS011;5707;49.588;12.148;2023-08-24T07:15:32;3.67;;;3.15;;
11303;SDS011;5707;49.588;12.148;2023-08-24T07:18:00;3.67;;;3.10;;
11303;SDS011;5707;49.588;12.148;2023-08-24T07:20:26;3.88;;;3.42;;
11303;SDS011;5707;49.588;12.148;2023-08-24T07:22:52;5.78;;;3.55;;
11303;SDS011;5707;49.588;12.148;2023-08-24T07:25:18;7.47;;;3.75;;
11303;SDS011;5707;49.588;12.148;2023-08-24T07:27:46;3.67;;;3.30;;
11303;SDS011;5707;49.588;12.148;2023-08-24T07:30:12;4.68;;;3.95;;
11303;SDS011;5707;49.588;12.148;2023-08-24T07:32:38;4.82;;;3.63;;
11303;SDS011;5707;49.588;12.148;2023-08-24T07:35:03;4.15;;;3.30;;
11303;SDS011;5707;49.588;12.148;2023-08-24T07:37:31;4.90;;;3.28;;
11303;SDS011;5707;49.588;12.148;2023-08-24T07:39:57;2.75;;;2.55;;
11303;SDS011;5707;49.588;12.148;2023-08-24T07:42:22;3.40;;;2.72;;
11303;SDS011;5707;49.588;12.148;2023-08-24T07:44:48;7.60;;;3.28;;
11303;SDS011;5707;49.588;12.148;2023-08-24T07:47:14;6.38;;;3.30;;
11303;SDS011;5707;49.588;12.148;2023-08-24T07:49:40;3.50;;;3.23;;
11303;SDS011;5707;49.588;12.148;2023-08-24T07:52:09;4.13;;;2.90;;
11303;SDS011;5707;49.588;12.148;2023-08-24T07:54:38;3.90;;;2.85;;
11303;SDS011;5707;49.588;12.148;2023-08-24T07:57:07;4.35;;;2.88;;
11303;SDS011;5707;49.588;12.148;2023-08-24T07:59:32;3.67;;;3.38;;
11303;SDS011;5707;49.588;12.148;2023-08-24T08:01:58;3.15;;;2.85;;
11303;SDS011;5707;49.588;12.148;2023-08-24T08:04:23;3.33;;;3.00;;
11303;SDS011;5707;49.588;12.148;2023-08-24T08:06:49;3.55;;;3.10;;
11303;SDS011;5707;49.588;12.148;2023-08-24T08:09:15;3.63;;;3.20;;
11303;SDS011;5707;49.588;12.148;2023-08-24T08:11:41;3.25;;;3.03;;
11303;SDS011;5707;49.588;12.148;2023-08-24T08:14:08;4.20;;;2.90;;
11303;SDS011;5707;49.588;12.148;2023-08-24T08:16:34;3.38;;;2.85;;
11303;SDS011;5707;49.588;12.148;2023-08-24T08:19:01;3.47;;;3.17;;
11303;SDS011;5707;49.588;12.148;2023-08-24T08:21:27;4.30;;;3.30;;
11303;SDS011;5707;49.588;12.148;2023-08-24T08:23:53;3.08;;;2.83;;
11303;SDS011;5707;49.588;12.148;2023-08-24T08:26:18;2.95;;;2.50;;
11303;SDS011;5707;49.588;12.148;2023-08-24T08:28:44;3.03;;;2.83;;
11303;SDS011;5707;49.588;12.148;2023-08-24T08:31:09;3.28;;;2.97;;
11303;SDS011;5707;49.588;12.148;2023-08-24T08:33:35;7.22;;;3.25;;
11303;SDS011;5707;49.588;12.148;2023-08-24T08:36:01;3.85;;;3.55;;
11303;SDS011;5707;49.588;12.148;2023-08-24T08:38:27;3.58;;;3.28;;
11303;SDS011;5707;49.588;12.148;2023-08-24T08:40:53;5.55;;;3.20;;
11303;SDS011;5707;49.588;12.148;2023-08-24T08:43:21;6.32;;;3.65;;
11303;SDS011;5707;49.588;12.148;2023-08-24T08:45:50;4.93;;;3.15;;
11303;SDS011;5707;49.588;12.148;2023-08-24T08:48:17;4.95;;;3.25;;
11303;SDS011;5707;49.588;12.148;2023-08-24T08:50:45;3.17;;;2.75;;
11303;SDS011;5707;49.588;12.148;2023-08-24T08:53:16;3.63;;;3.33;;
11303;SDS011;5707;49.588;12.148;2023-08-24T08:55:41;3.33;;;2.95;;
11303;SDS011;5707;49.588;12.148;2023-08-24T08:58:09;5.60;;;3.35;;
11303;SDS011;5707;49.588;12.148;2023-08-24T09:00:35;3.20;;;2.75;;
11303;SDS011;5707;49.588;12.148;2023-08-24T09:03:02;3.97;;;3.13;;
11303;SDS011;5707;49.588;12.148;2023-08-24T09:05:30;3.40;;;3.10;;
11303;SDS011;5707;49.588;12.148;2023-08-24T09:07:56;2.70;;;2.50;;
11303;SDS011;5707;49.588;12.148;2023-08-24T09:10:23;4.57;;;2.65;;
11303;SDS011;5707;49.588;12.148;2023-08-24T09:12:49;2.95;;;2.67;;
11303;SDS011;5707;49.588;12.148;2023-08-24T09:15:14;2.83;;;2.40;;
11303;SDS011;5707;49.588;12.148;2023-08-24T09:17:50;6.85;;;2.72;;
11303;SDS011;5707;49.588;12.148;2023-08-24T09:20:15;3.38;;;2.83;;
11303;SDS011;5707;49.588;12.148;2023-08-24T09:22:42;3.95;;;2.55;;
11303;SDS011;5707;49.588;12.148;2023-08-24T09:25:09;2.50;;;2.30;;
11303;SDS011;5707;49.588;12.148;2023-08-24T09:27:35;3.78;;;2.65;;
11303;SDS011;5707;49.588;12.148;2023-08-24T09:30:01;6.00;;;2.42;;
11303;SDS011;5707;49.588;12.148;2023-08-24T09:32:27;2.38;;;1.48;;
11303;SDS011;5707;49.588;12.148;2023-08-24T09:34:54;2.03;;;1.85;;
11303;SDS011;5707;49.588;12.148;2023-08-24T09:37:20;3.42;;;2.15;;
11303;SDS011;5707;49.588;12.148;2023-08-24T09:39:45;2.15;;;1.95;;
11303;SDS011;5707;49.588;12.148;2023-08-24T09:42:12;2.45;;;2.08;;
11303;SDS011;5707;49.588;12.148;2023-08-24T09:44:43;4.72;;;2.35;;
11303;SDS011;5707;49.588;12.148;2023-08-24T09:47:10;2.25;;;1.80;;
11303;SDS011;5707;49.588;12.148;2023-08-24T09:49:36;5.50;;;2.28;;
11303;SDS011;5707;49.588;12.148;2023-08-24T09:52:02;2.20;;;2.00;;
11303;SDS011;5707;49.588;12.148;2023-08-24T09:54:35;5.20;;;2.10;;
11303;SDS011;5707;49.588;12.148;2023-08-24T09:57:02;2.75;;;2.22;;
11303;SDS011;5707;49.588;12.148;2023-08-24T09:59:29;2.38;;;2.17;;
11303;SDS011;5707;49.588;12.148;2023-08-24T10:01:57;2.50;;;2.30;;
11303;SDS011;5707;49.588;12.148;2023-08-24T10:04:28;2.50;;;2.00;;
11303;SDS011;5707;49.588;12.148;2023-08-24T10:07:28;4.75;;;2.42;;
11303;SDS011;5707;49.588;12.148;2023-08-24T10:09:58;5.18;;;3.00;;
11303;SDS011;5707;49.588;12.148;2023-08-24T10:12:35;2.50;;;2.30;;
11303;SDS011;5707;49.588;12.148;2023-08-24T10:15:06;2.95;;;2.50;;
11303;SDS011;5707;49.588;12.148;2023-08-24T10:17:33;2.90;;;1.80;;
11303;SDS011;5707;49.588;12.148;2023-08-24T10:20:01;1.67;;;1.40;;
11303;SDS011;5707;49.588;12.148;2023-08-24T10:22:31;5.18;;;2.05;;
11303;SDS011;5707;49.588;12.148;2023-08-24T10:24:59;1.77;;;1.67;;
11303;SDS011;5707;49.588;12.148;2023-08-24T10:27:26;1.95;;;1.38;;
11303;SDS011;5707;49.588;12.148;2023-08-24T10:29:52;1.50;;;1.40;;
11303;SDS011;5707;49.588;12.148;2023-08-24T10:32:21;2.97;;;1.73;;
11303;SDS011;5707;49.588;12.148;2023-08-24T10:34:49;3.53;;;1.70;;
11303;SDS011;5707;49.588;12.148;2023-08-24T10:37:15;1.58;;;1.48;;
11303;SDS011;5707;49.588;12.148;2023-08-24T10:39:44;2.35;;;2.00;;
11303;SDS011;5707;49.588;12.148;2023-08-24T10:42:11;2.10;;;1.70;;
11303;SDS011;5707;49.588;12.148;2023-08-24T10:44:38;2.10;;;1.90;;
11303;SDS011;5707;49.588;12.148;2023-08-24T10:47:14;2.15;;;1.92;;
11303;SDS011;5707;49.588;12.148;2023-08-24T10:49:40;2.35;;;1.92;;
11303;SDS011;5707;49.588;12.148;2023-08-24T10:52:17;2.70;;;1.70;;
11303;SDS011;5707;49.588;12.148;2023-08-24T10:54:44;4.38;;;2.10;;
11303;SDS011;5707;49.588;12.148;2023-08-24T10:57:27;2.17;;;1.75;;
11303;SDS011;5707;49.588;12.148;2023-08-24T11:00:10;3.30;;;1.85;;
11303;SDS011;5707;49.588;12.148;2023-08-24T11:02:44;2.28;;;1.98;;
11303;SDS011;5707;49.588;12.148;2023-08-24T11:05:29;2.05;;;1.70;;
11303;SDS011;5707;49.588;12.148;2023-08-24T11:08:00;3.63;;;2.20;;
11303;SDS011;5707;49.588;12.148;2023-08-24T11:10:31;2.17;;;1.92;;
11303;SDS011;5707;49.588;12.148;2023-08-24T11:15:42;2.00;;;1.90;;
11303;SDS011;5707;49.588;12.148;2023-08-24T11:20:50;3.65;;;1.90;;
11303;SDS011;5707;49.588;12.148;2023-08-24T11:23:21;3.53;;;1.92;;
11303;SDS011;5707;49.588;12.148;2023-08-24T11:25:49;3.22;;;2.00;;
11303;SDS011;5707;49.588;12.148;2023-08-24T11:28:21;2.20;;;2.05;;
11303;SDS011;5707;49.588;12.148;2023-08-24T11:30:48;4.45;;;2.13;;
11303;SDS011;5707;49.588;12.148;2023-08-24T11:33:14;3.15;;;2.08;;
11303;SDS011;5707;49.588;12.148;2023-08-24T11:35:41;3.00;;;1.80;;
11303;SDS011;5707;49.588;12.148;2023-08-24T11:38:08;2.50;;;2.30;;
11303;SDS011;5707;49.588;12.148;2023-08-24T11:40:33;2.25;;;2.10;;
11303;SDS011;5707;49.588;12.148;2023-08-24T11:42:59;2.45;;;2.20;;
11303;SDS011;5707;49.588;12.148;2023-08-24T11:45:29;2.72;;;2.53;;
11303;SDS011;5707;49.588;12.148;2023-08-24T11:47:57;4.65;;;2.33;;
11303;SDS011;5707;49.588;12.148;2023-08-24T11:50:24;2.70;;;2.50;;
11303;SDS011;5707;49.588;12.148;2023-08-24T11:52:50;3.40;;;2.10;;
11303;SDS011;5707;49.588;12.148;2023-08-24T11:55:17;3.10;;;2.10;;
11303;SDS011;5707;49.588;12.148;2023-08-24T11:57:43;2.40;;;2.15;;
11303;SDS011;5707;49.588;12.148;2023-08-24T12:00:09;2.30;;;2.10;;
11303;SDS011;5707;49.588;12.148;2023-08-24T12:02:38;2.88;;;2.17;;
11303;SDS011;5707;49.588;12.148;2023-08-24T12:05:05;3.38;;;2.35;;
11303;SDS011;5707;49.588;12.148;2023-08-24T12:07:32;2.72;;;2.45;;
11303;SDS011;5707;49.588;12.148;2023-08-24T12:10:00;2.80;;;2.50;;
11303;SDS011;5707;49.588;12.148;2023-08-24T12:12:28;2.95;;;2.60;;
11303;SDS011;5707;49.588;12.148;2023-08-24T12:14:54;3.05;;;2.17;;
11303;SDS011;5707;49.588;12.148;2023-08-24T12:17:22;2.60;;;2.20;;
11303;SDS011;5707;49.588;12.148;2023-08-24T12:19:58;2.47;;;2.28;;
11303;SDS011;5707;49.588;12.148;2023-08-24T12:22:25;4.78;;;2.28;;
11303;SDS011;5707;49.588;12.148;2023-08-24T12:24:51;3.03;;;2.17;;
11303;SDS011;5707;49.588;12.148;2023-08-24T12:27:22;3.63;;;2.35;;
11303;SDS011;5707;49.588;12.148;2023-08-24T12:29:49;3.17;;;1.90;;
11303;SDS011;5707;49.588;12.148;2023-08-24T12:32:16;3.08;;;2.13;;
11303;SDS011;5707;49.588;12.148;2023-08-24T12:34:44;3.35;;;2.92;;
11303;SDS011;5707;49.588;12.148;2023-08-24T12:37:11;2.63;;;2.35;;
11303;SDS011;5707;49.588;12.148;2023-08-24T12:39:37;2.40;;;2.20;;
11303;SDS011;5707;49.588;12.148;2023-08-24T12:42:04;2.50;;;2.28;;
11303;SDS011;5707;49.588;12.148;2023-08-24T12:44:30;2.60;;;2.40;;
11303;SDS011;5707;49.588;12.148;2023-08-24T12:46:55;2.70;;;2.20;;
11303;SDS011;5707;49.588;12.148;2023-08-24T12:49:21;3.72;;;2.38;;
11303;SDS011;5707;49.588;12.148;2023-08-24T12:51:47;2.70;;;2.50;;
11303;SDS011;5707;49.588;12.148;2023-08-24T12:54:12;4.63;;;2.65;;
11303;SDS011;5707;49.588;12.148;2023-08-24T12:56:38;3.92;;;2.30;;
11303;SDS011;5707;49.588;12.148;2023-08-24T12:59:05;2.28;;;2.17;;
11303;SDS011;5707;49.588;12.148;2023-08-24T13:01:32;4.95;;;2.53;;
11303;SDS011;5707;49.588;12.148;2023-08-24T13:03:57;3.92;;;2.20;;
11303;SDS011;5707;49.588;12.148;2023-08-24T13:06:23;2.33;;;2.20;;
11303;SDS011;5707;49.588;12.148;2023-08-24T13:08:48;3.08;;;2.20;;
11303;SDS011;5707;49.588;12.148;2023-08-24T13:11:14;2.22;;;2.10;;
11303;SDS011;5707;49.588;12.148;2023-08-24T13:13:39;3.47;;;1.98;;
11303;SDS011;5707;49.588;12.148;2023-08-24T13:16:06;2.63;;;2.10;;
11303;SDS011;5707;49.588;12.148;2023-08-24T13:18:32;2.67;;;2.47;;
11303;SDS011;5707;49.588;12.148;2023-08-24T13:20:57;3.90;;;2.50;;
11303;SDS011;5707;49.588;12.148;2023-08-24T13:23:23;2.50;;;2.30;;
11303;SDS011;5707;49.588;12.148;2023-08-24T13:25:48;3.08;;;2.80;;
11303;SDS011;5707;49.588;12.148;2023-08-24T13:28:14;5.28;;;2.75;;
11303;SDS011;5707;49.588;12.148;2023-08-24T13:30:40;2.47;;;2.28;;
11303;SDS011;5707;49.588;12.148;2023-08-24T13:33:05;2.83;;;2.42;;
11303;SDS011;5707;49.588;12.148;2023-08-24T13:35:31;2.47;;;2.28;;
11303;SDS011;5707;49.588;12.148;2023-08-24T13:37:57;2.10;;;2.00;;
11303;SDS011;5707;49.588;12.148;2023-08-24T13:40:23;5.13;;;2.40;;
11303;SDS011;5707;49.588;12.148;2023-08-24T13:42:48;2.75;;;2.10;;
11303;SDS011;5707;49.588;12.148;2023-08-24T13:45:14;2.38;;;2.17;;
11303;SDS011;5707;49.588;12.148;2023-08-24T13:47:40;2.53;;;2.33;;
11303;SDS011;5707;49.588;12.148;2023-08-24T13:50:06;2.42;;;2.22;;
11303;SDS011;5707;49.588;12.148;2023-08-24T13:52:33;5.05;;;2.75;;
11303;SDS011;5707;49.588;12.148;2023-08-24T13:54:58;2.80;;;2.50;;
11303;SDS011;5707;49.588;12.148;2023-08-24T13:57:24;2.60;;;2.40;;
11303;SDS011;5707;49.588;12.148;2023-08-24T13:59:49;2.33;;;2.13;;
11303;SDS011;5707;49.588;12.148;2023-08-24T14:02:15;2.72;;;2.25;;
11303;SDS011;5707;49.588;12.148;2023-08-24T14:04:41;2.42;;;2.22;;
11303;SDS011;5707;49.588;12.148;2023-08-24T14:07:06;3.53;;;2.50;;
11303;SDS011;5707;49.588;12.148;2023-08-24T14:09:32;3.03;;;2.78;;
11303;SDS011;5707;49.588;12.148;2023-08-24T14:11:58;5.22;;;2.28;;
11303;SDS011;5707;49.588;12.148;2023-08-24T14:14:23;2.40;;;2.20;;
11303;SDS011;5707;49.588;12.148;2023-08-24T14:16:55;2.70;;;2.50;;
11303;SDS011;5707;49.588;12.148;2023-08-24T14:19:21;2.60;;;2.40;;
11303;SDS011;5707;49.588;12.148;2023-08-24T14:21:47;3.47;;;2.38;;
11303;SDS011;5707;49.588;12.148;2023-08-24T14:24:13;2.58;;;2.13;;
11303;SDS011;5707;49.588;12.148;2023-08-24T14:26:38;7.72;;;2.90;;
11303;SDS011;5707;49.588;12.148;2023-08-24T14:29:10;4.18;;;2.50;;
11303;SDS011;5707;49.588;12.148;2023-08-24T14:31:36;2.47;;;2.22;;
11303;SDS011;5707;49.588;12.148;2023-08-24T14:34:02;2.83;;;2.53;;
11303;SDS011;5707;49.588;12.148;2023-08-24T14:36:28;2.83;;;2.25;;
11303;SDS011;5707;49.588;12.148;2023-08-24T14:38:54;2.53;;;2.33;;
11303;SDS011;5707;49.588;12.148;2023-08-24T14:41:20;3.17;;;2.20;;
11303;SDS011;5707;49.588;12.148;2023-08-24T14:43:45;5.13;;;2.58;;
11303;SDS011;5707;49.588;12.148;2023-08-24T14:46:12;3.58;;;2.30;;
11303;SDS011;5707;49.588;12.148;2023-08-24T14:48:38;2.70;;;2.13;;
11303;SDS011;5707;49.588;12.148;2023-08-24T14:51:04;2.55;;;2.35;;
11303;SDS011;5707;49.588;12.148;2023-08-24T14:53:30;3.75;;;2.50;;
11303;SDS011;5707;49.588;12.148;2023-08-24T14:55:56;4.38;;;2.38;;
11303;SDS011;5707;49.588;12.148;2023-08-24T14:58:22;3.40;;;2.15;;